Nearby METAR Reports

 

K8A0 - Albertville Muni, AL
Distance from station: SW 1mi, 2km
Updated: Sat, 15-Jun-2024 5:55am CDT
Clear
Clear
 Wind from calm
Wind: Calm
Temperature: 70°F, 21°C
Dew Point: 68°F, 20°C
Humidity: 94%
Barometer: 30.01 inHg, 1016.3 hPa
Clouds: Clear
Visibility: 7 miles, 11 km
2024/06/15 10:55 K8A0 151055Z AUTO 00000KT 7SM CLR 21/20 A3001 RMK AO2
KGAD - Gadsden Muni, AL
Distance from station: SSE 21mi, 35km
Updated: Sat, 15-Jun-2024 5:56am CDT
Mist, Clear
Mist, Clear
 Wind from calm
Wind: Calm
Temperature: 68°F, 20°C
Dew Point: 68°F, 20°C
Humidity: 100%
Barometer: 29.99 inHg, 1015.6 hPa
Summary: Mist
Clouds: Clear
Visibility: 6 miles, 10 km
2024/06/15 10:56 KGAD 151056Z AUTO 00000KT 6SM BR CLR 20/20 A2999 RMK AO2 SLP154 T02000200 $
 
K4A6 - Scottsboro, AL
Distance from station: NNE 33mi, 53km
Updated: Sat, 15-Jun-2024 5:55am CDT
Clear
Clear
 Wind from calm
Wind: Calm
Temperature: 70°F, 21°C
Dew Point: 70°F, 21°C
Humidity: 100%
Barometer: 30.00 inHg, 1015.9 hPa
Clouds: Clear
Visibility: 7 miles, 11 km
2024/06/15 10:55 K4A6 151055Z AUTO 00000KT 7SM CLR 21/21 A3000 RMK AO2
K4A9 - Ft Payne, AL
Distance from station: ENE 33mi, 54km
Updated: Sat, 15-Jun-2024 5:55am CDT
Mist, Clear
Mist, Clear
 Wind from calm
Wind: Calm
Temperature: 66°F, 19°C
Dew Point: 64°F, 18°C
Humidity: 94%
Barometer: 29.99 inHg, 1015.6 hPa
Summary: Mist
Clouds: Clear
Visibility: 5 miles, 8 km
2024/06/15 10:55 K4A9 151055Z AUTO 00000KT 5SM BR CLR 19/18 A2999 RMK AO2 T01860181
 
KMDQ - Huntsville, AL
Distance from station: NNW 47mi, 75km
Updated: Sat, 15-Jun-2024 5:55am CDT
Mist, Clear
Mist, Clear
 Wind from calm
Wind: Calm
Temperature: 68°F, 20°C
Dew Point: 68°F, 20°C
Humidity: 100%
Barometer: 30.00 inHg, 1015.9 hPa
Summary: Mist
Clouds: Clear
Visibility: 5 miles, 8 km
2024/06/15 10:55 KMDQ 151055Z AUTO 00000KT 5SM BR CLR 20/20 A3000 RMK A02 T02020198
KDCU - Decatur, AL
Distance from station: NW 49mi, 80km
Updated: Sat, 15-Jun-2024 5:53am CDT
Clear
Clear
 Wind from calm
Wind: Calm
Temperature: 70°F, 21°C
Dew Point: 66°F, 19°C
Humidity: 88%
Barometer: 29.99 inHg, 1015.6 hPa
Clouds: Clear
Visibility: 7 miles, 11 km
2024/06/15 10:53 KDCU 151053Z AUTO 00000KT 7SM CLR 21/19 A2999 RMK AO2 SLP147 T02110194 $
 
KGKT - Sevierville, TN
Distance from station: NE 235mi, 378km
Updated: Sat, 15-Jun-2024 5:56am CDT
Mist, Clear
Mist, Clear
 Wind from calm
Wind: Calm
Temperature: 68°F, 20°C
Dew Point: 68°F, 20°C
Humidity: 100%
Barometer: 30.02 inHg, 1016.6 hPa
Summary: Mist
Clouds: Clear
Visibility: 6 miles, 10 km
2024/06/15 10:56 KGKT 151056Z AUTO 00000KT 6SM BR CLR 20/20 A3002 RMK A01
KSSI - Jeckyll Island, GA
Distance from station: SE 467mi, 752km
Updated: Sat, 15-Jun-2024 5:55am CDT
Few Clouds
Few Clouds
 Wind from calm
Wind: Calm
Temperature: 73°F, 23°C
Dew Point: 73°F, 23°C
Humidity: 100%
Barometer: 29.96 inHg, 1014.6 hPa
Clouds: Few Clouds
Visibility: 9 miles, 14 km
Cloud details: Few Clouds 200 ft
2024/06/15 10:55 KSSI 151055Z AUTO 00000KT 9SM FEW002 23/23 A2996 RMK AO2
 
KECP - Panama City, FL
Distance from station: S 330mi, 531km
Updated: Sat, 15-Jun-2024 5:53am CDT
Clear
Clear
 Wind from calm
Wind: Calm
Temperature: 73°F, 23°C
Dew Point: 72°F, 22°C
Humidity: 94%
Barometer: 29.93 inHg, 1013.5 hPa
Clouds: Clear
Visibility: 7 miles, 11 km
2024/06/15 10:53 KECP 151053Z 00000KT 7SM CLR 23/22 A2993 RMK AO1 SLP144 T02280222
KTPA - Tampa, FL,
Distance from station: S 600mi, 965km
Updated: Sat, 15-Jun-2024 5:53am CDT
Partly cloudy
Partly cloudy
 Wind from calm
Wind: Calm
Temperature: 75°F, 24°C
Dew Point: 73°F, 23°C
Humidity: 94%
Barometer: 29.94 inHg, 1013.9 hPa
Clouds: Partly cloudy
Visibility: 10 miles, 16 km
Cloud details: Partly cloudy 22000 ft
2024/06/15 10:53 KTPA 151053Z 00000KT 10SM SCT220 24/23 A2994 RMK AO2 SLP138 T02390228 $
 
KMTH - Marathon, FL,
Distance from station: S 915mi, 1473km
Updated: Sat, 15-Jun-2024 5:53am CDT
Few Clouds
Few Clouds
 Wind from NE
Wind: NE 3 mph, 6 km/h
Temperature: 82°F, 28°C
Heat Index: 91°F, 33°C
Dew Point: 79°F, 26°C
Humidity: 89%
Barometer: 29.94 inHg, 1013.9 hPa
Clouds: Few Clouds
Visibility: 10 miles, 16 km
Cloud details: Few Clouds 11000 ft
2024/06/15 10:53 KMTH 151053Z AUTO 05003KT 10SM FEW110 28/26 A2994 RMK AO2 LTG DSNT N RAB16E36 SLP137 P0000 T02780261 $
KNYL - Yuma, AZ
Distance from station: W 3147mi, 5065km
Updated: Sat, 15-Jun-2024 5:57am CDT
Clear
Clear
 Wind from SSE
Wind: SSE 3 mph, 6 km/h
Temperature: 82°F, 28°C
Dew Point: 39°F, 4°C
Humidity: 21%
Barometer: 29.67 inHg, 1004.7 hPa
Clouds: Clear
Visibility: 10 miles, 16 km
2024/06/15 10:57 KNYL 151057Z AUTO 16003KT 10SM CLR 28/04 A2967 RMK AO2 SLP044 T02780039
 
PABI - Ft. Greely, AK
Distance from station: NW 4300mi, 7167km
Updated: Sat, 15-Jun-2024 5:53am CDT
Few Clouds
Few Clouds
 Wind from SSW
Wind: SSW 3 mph, 6 km/h
Temperature: 48°F, 9°C
Dew Point: 45°F, 7°C
Humidity: 87%
Barometer: 30.16 inHg, 1021.3 hPa
Clouds: Few Clouds
Visibility: 10 miles, 16 km
Cloud details: Few Clouds 12000 ft
2024/06/15 10:53 PABI 151053Z AUTO 21003KT 10SM FEW120 09/07 A3016 RMK AO2 SLP218 T00940072 TSNO $